createdAt,value
2023-01-25T00:00:41.178Z,97562.91
2023-01-25T00:01:55.293Z,97569.75
2023-01-25T00:03:00.404Z,97570.63
2023-01-25T00:04:02.378Z,97568.94
2023-01-25T00:05:07.857Z,97567.19
2023-01-25T00:06:10.098Z,97563.78
2023-01-25T00:07:17.337Z,97555.19
2023-01-25T00:08:21.276Z,97561.19
2023-01-25T00:09:27.034Z,97557.03
2023-01-25T00:10:29.083Z,97567.25
2023-01-25T00:11:34.097Z,97571.47
2023-01-25T00:12:36.098Z,97575.69
2023-01-25T00:13:40.655Z,97573.16
2023-01-25T00:14:42.590Z,97573.13
2023-01-25T00:15:47.126Z,97574.00
2023-01-25T00:16:49.208Z,97579.09
2023-01-25T00:17:53.983Z,97582.53
2023-01-25T00:18:55.973Z,97573.13
2023-01-25T00:20:00.550Z,97574.84
2023-01-25T00:21:12.166Z,97574.81
2023-01-25T00:22:19.041Z,97574.00
2023-01-25T00:23:21.233Z,97572.41
2023-01-25T00:24:26.316Z,97568.88
2023-01-25T00:25:28.373Z,97566.34
2023-01-25T00:26:33.603Z,97567.19
2023-01-25T00:27:35.666Z,97563.75
2023-01-25T00:28:40.629Z,97566.31
2023-01-25T00:29:42.820Z,97563.75
2023-01-25T00:30:47.402Z,97561.25
2023-01-25T00:32:02.461Z,97561.22
2023-01-25T00:33:30.028Z,97562.03
2023-01-25T00:34:51.672Z,97552.72
2023-01-25T00:35:57.018Z,97559.50
2023-01-25T00:37:05.657Z,97560.34
2023-01-25T00:38:33.237Z,97563.78
2023-01-25T00:39:35.270Z,97557.00
2023-01-25T00:40:39.809Z,97562.97
2023-01-25T00:41:42.867Z,97561.28
2023-01-25T00:42:47.478Z,97568.13
2023-01-25T00:43:49.455Z,97563.81
2023-01-25T00:44:54.076Z,97557.88
2023-01-25T00:46:00.850Z,97556.13
2023-01-25T00:47:05.510Z,97560.44
2023-01-25T00:48:10.143Z,97555.31
2023-01-25T00:49:19.949Z,97555.31
2023-01-25T00:50:24.550Z,97547.59
2023-01-25T00:51:26.652Z,97551.84
2023-01-25T00:52:31.392Z,97551.13
2023-01-25T00:53:36.110Z,97554.50
2023-01-25T00:54:40.699Z,97548.59
2023-01-25T00:55:51.201Z,97554.56
2023-01-25T00:56:56.652Z,97557.06
2023-01-25T00:58:01.308Z,97545.16
2023-01-25T00:59:03.306Z,97552.72
2023-01-25T01:00:09.536Z,97557.00
2023-01-25T01:01:12.523Z,97557.81
2023-01-25T01:02:17.309Z,97549.34
2023-01-25T01:03:19.453Z,97555.28
2023-01-25T01:04:25.706Z,97549.31
2023-01-25T01:05:30.509Z,97554.44
2023-01-25T01:06:32.660Z,97552.72
2023-01-25T01:07:37.490Z,97550.16
2023-01-25T01:08:43.079Z,97557.81
2023-01-25T01:09:47.778Z,97549.22
2023-01-25T01:10:49.863Z,97547.53
2023-01-25T01:11:54.717Z,97553.56
2023-01-25T01:12:56.884Z,97550.97
2023-01-25T01:14:02.191Z,97550.13
2023-01-25T01:15:08.402Z,97549.28
2023-01-25T01:16:12.284Z,97549.31
2023-01-25T01:17:17.077Z,97544.25
2023-01-25T01:18:19.203Z,97550.16
2023-01-25T01:19:24.230Z,97552.72
2023-01-25T01:20:26.320Z,97546.81
2023-01-25T01:21:31.422Z,97557.00
2023-01-25T01:22:33.426Z,97551.00
2023-01-25T01:23:39.502Z,97552.72
2023-01-25T01:24:46.860Z,97549.31
2023-01-25T01:25:48.997Z,97552.75
2023-01-25T01:26:53.674Z,97553.66
2023-01-25T01:27:55.755Z,97545.91
2023-01-25T01:29:01.675Z,97543.34
2023-01-25T01:30:04.588Z,97548.38
2023-01-25T01:31:11.393Z,97550.91
2023-01-25T01:32:16.198Z,97547.47
2023-01-25T01:33:18.315Z,97552.63
2023-01-25T01:34:23.012Z,97537.25
2023-01-25T01:35:24.999Z,97540.63
2023-01-25T01:36:32.420Z,97537.28
2023-01-25T01:37:34.422Z,97539.00
2023-01-25T01:38:39.350Z,97546.69
2023-01-25T01:39:43.963Z,97548.41
2023-01-25T01:40:49.311Z,97542.38
2023-01-25T01:41:53.954Z,97547.50
2023-01-25T01:43:01.252Z,97554.25
2023-01-25T01:44:06.692Z,97550.88
2023-01-25T01:45:38.551Z,97549.25
2023-01-25T01:46:43.614Z,97547.47
2023-01-25T01:47:48.874Z,97550.94
2023-01-25T01:48:57.739Z,97553.47
2023-01-25T01:50:03.778Z,97548.34
2023-01-25T01:51:19.470Z,97549.13
2023-01-25T01:52:30.351Z,97544.00
2023-01-25T01:53:33.866Z,97546.53
2023-01-25T01:54:46.003Z,97538.88
2023-01-25T01:55:51.877Z,97541.50
2023-01-25T01:57:01.489Z,97550.00
2023-01-25T01:58:04.662Z,97552.66
2023-01-25T01:59:10.907Z,97550.13
2023-01-25T02:00:16.835Z,97548.34
2023-01-25T02:01:21.975Z,97548.34
2023-01-25T02:02:25.126Z,97548.38
2023-01-25T02:03:31.500Z,97546.75
2023-01-25T02:04:35.467Z,97545.88
2023-01-25T02:05:46.947Z,97551.78
2023-01-25T02:06:53.676Z,97547.47
2023-01-25T02:07:59.137Z,97547.50
2023-01-25T02:09:02.019Z,97542.41
2023-01-25T02:10:08.964Z,97541.47
2023-01-25T02:11:13.909Z,97537.25
2023-01-25T02:12:19.231Z,97541.50
2023-01-25T02:13:21.961Z,97539.81
2023-01-25T02:14:27.387Z,97540.59
2023-01-25T02:15:37.666Z,97542.31
2023-01-25T02:16:42.548Z,97545.75
2023-01-25T02:17:44.542Z,97549.13
2023-01-25T02:18:49.793Z,97542.31
2023-01-25T02:19:56.920Z,97547.44
2023-01-25T02:21:03.971Z,97539.78
2023-01-25T02:22:13.528Z,97544.91
2023-01-25T02:23:27.880Z,97545.69
2023-01-25T02:24:33.379Z,97540.63
2023-01-25T02:25:41.572Z,97538.84
2023-01-25T02:26:43.836Z,97542.28
2023-01-25T02:27:54.617Z,97543.09
2023-01-25T02:29:01.158Z,97538.03
2023-01-25T02:30:06.686Z,97543.16
2023-01-25T02:31:08.747Z,97541.38
2023-01-25T02:32:13.655Z,97535.44
2023-01-25T02:33:16.204Z,97543.13
2023-01-25T02:34:20.810Z,97535.41
2023-01-25T02:35:36.103Z,97536.34
2023-01-25T02:36:40.875Z,97531.22
2023-01-25T02:37:42.864Z,97529.47
2023-01-25T02:38:54.007Z,97528.53
2023-01-25T02:39:56.010Z,97533.59
2023-01-25T02:41:09.444Z,97530.19
2023-01-25T02:42:11.424Z,97531.09
2023-01-25T02:43:16.137Z,97537.09
2023-01-25T02:44:21.527Z,97528.53
2023-01-25T02:45:32.506Z,97533.72
2023-01-25T02:46:36.967Z,97529.47
2023-01-25T02:47:41.805Z,97533.72
2023-01-25T02:48:43.810Z,97536.19
2023-01-25T02:49:48.556Z,97533.72
2023-01-25T02:50:50.639Z,97529.41
2023-01-25T02:51:57.857Z,97523.50
2023-01-25T02:52:59.968Z,97530.28
2023-01-25T02:54:06.152Z,97525.19
2023-01-25T02:55:09.816Z,97527.72
2023-01-25T02:56:17.592Z,97524.31
2023-01-25T02:57:21.672Z,97525.97
2023-01-25T02:58:27.749Z,97527.69
2023-01-25T02:59:29.833Z,97527.66
2023-01-25T03:00:34.458Z,97525.19
2023-01-25T03:01:38.473Z,97526.88
2023-01-25T03:02:43.418Z,97520.94
2023-01-25T03:03:45.597Z,97524.31
2023-01-25T03:04:51.283Z,97522.63
2023-01-25T03:05:53.471Z,97520.03
2023-01-25T03:06:58.842Z,97529.47
2023-01-25T03:08:01.057Z,97520.94
2023-01-25T03:09:07.040Z,97522.66
2023-01-25T03:10:10.843Z,97515.91
2023-01-25T03:11:18.105Z,97519.38
2023-01-25T03:12:20.233Z,97518.47
2023-01-25T03:13:24.890Z,97510.75
2023-01-25T03:14:26.941Z,97507.38
2023-01-25T03:15:31.635Z,97511.63
2023-01-25T03:16:33.982Z,97513.22
2023-01-25T03:17:39.018Z,97506.38
2023-01-25T03:18:41.415Z,97508.97
2023-01-25T03:19:46.135Z,97509.84
2023-01-25T03:20:48.106Z,97507.28
2023-01-25T03:21:52.769Z,97503.88
2023-01-25T03:22:55.372Z,97500.47
2023-01-25T03:24:03.282Z,97510.66
2023-01-25T03:25:07.351Z,97514.09
2023-01-25T03:26:13.687Z,97512.34
2023-01-25T03:27:18.709Z,97501.41
2023-01-25T03:28:23.344Z,97497.97
2023-01-25T03:29:25.319Z,97500.56
2023-01-25T03:30:29.951Z,97497.13
2023-01-25T03:31:32.119Z,97498.84
2023-01-25T03:32:38.118Z,97486.94
2023-01-25T03:33:40.797Z,97492.06
2023-01-25T03:34:45.508Z,97488.66
2023-01-25T03:35:52.347Z,97491.16
2023-01-25T03:36:56.981Z,97486.88
2023-01-25T03:37:58.965Z,97489.44
2023-01-25T03:39:03.621Z,97483.44
2023-01-25T03:40:07.176Z,97484.28
2023-01-25T03:41:13.111Z,97486.00
2023-01-25T03:42:20.304Z,97480.84
2023-01-25T03:43:24.983Z,97476.53
2023-01-25T03:44:27.204Z,97485.88
2023-01-25T03:45:32.008Z,97482.50
2023-01-25T03:46:34.017Z,97494.44
2023-01-25T03:47:38.702Z,97484.25
2023-01-25T03:48:40.733Z,97490.16
2023-01-25T03:49:45.623Z,97488.50
2023-01-25T03:50:52.069Z,97479.22
2023-01-25T03:51:58.093Z,97488.63
2023-01-25T03:53:03.789Z,97486.00
2023-01-25T03:54:10.397Z,97488.59
2023-01-25T03:55:12.517Z,97486.84
2023-01-25T03:56:20.682Z,97484.34
2023-01-25T03:57:25.919Z,97488.59
2023-01-25T03:58:31.376Z,97482.59
2023-01-25T03:59:33.696Z,97484.25
2023-01-25T04:00:38.442Z,97480.91
2023-01-25T04:01:40.742Z,97473.22
2023-01-25T04:02:45.331Z,97480.03
2023-01-25T04:03:47.337Z,97485.16
2023-01-25T04:04:52.333Z,97481.78
2023-01-25T04:05:55.139Z,97485.16
2023-01-25T04:06:59.844Z,97478.25
2023-01-25T04:08:01.908Z,97475.72
2023-01-25T04:09:06.783Z,97480.03
2023-01-25T04:10:10.680Z,97478.28
2023-01-25T04:11:15.502Z,97479.13
2023-01-25T04:12:17.622Z,97476.56
2023-01-25T04:13:27.065Z,97474.88
2023-01-25T04:14:43.627Z,97470.59
2023-01-25T04:15:49.241Z,97472.34
2023-01-25T04:16:51.325Z,97476.59
2023-01-25T04:17:56.372Z,97477.47
2023-01-25T04:18:58.628Z,97472.38
2023-01-25T04:20:03.445Z,97476.59
2023-01-25T04:21:06.402Z,97479.19
2023-01-25T04:22:11.465Z,97474.88
2023-01-25T04:23:16.089Z,97473.94
2023-01-25T04:24:18.172Z,97479.06
2023-01-25T04:25:22.935Z,97472.28
2023-01-25T04:26:25.187Z,97473.97
2023-01-25T04:27:29.775Z,97474.03
2023-01-25T04:28:35.589Z,97472.34
2023-01-25T04:29:41.889Z,97477.44
2023-01-25T04:30:44.275Z,97472.38
2023-01-25T04:31:49.167Z,97468.97
2023-01-25T04:32:51.573Z,97468.94
2023-01-25T04:33:56.548Z,97470.72
2023-01-25T04:34:58.638Z,97470.69
2023-01-25T04:36:03.587Z,97466.41
2023-01-25T04:37:05.546Z,97468.94
2023-01-25T04:38:10.370Z,97464.63
2023-01-25T04:39:12.300Z,97470.56
2023-01-25T04:40:16.878Z,97471.44
2023-01-25T04:41:18.816Z,97461.28
2023-01-25T04:42:23.428Z,97457.81
2023-01-25T04:43:26.341Z,97467.22
2023-01-25T04:44:33.616Z,97464.72
2023-01-25T04:45:36.482Z,97467.28
2023-01-25T04:46:41.234Z,97461.28
2023-01-25T04:47:43.232Z,97465.50
2023-01-25T04:48:48.074Z,97462.88
2023-01-25T04:49:50.143Z,97462.06
2023-01-25T04:50:54.716Z,97462.84
2023-01-25T04:51:56.843Z,97459.50
2023-01-25T04:53:01.429Z,97459.44
2023-01-25T04:54:04.817Z,97458.56
2023-01-25T04:55:10.418Z,97460.25
2023-01-25T04:56:12.627Z,97454.34
2023-01-25T04:57:17.139Z,97452.66
2023-01-25T04:58:19.756Z,97455.22
2023-01-25T04:59:24.250Z,97450.16
2023-01-25T05:00:29.408Z,97456.06
2023-01-25T05:01:34.686Z,97447.56
2023-01-25T05:02:36.790Z,97454.34
2023-01-25T05:03:41.388Z,97455.22
2023-01-25T05:04:43.372Z,97450.97
2023-01-25T05:05:49.835Z,97455.22
2023-01-25T05:06:51.777Z,97444.16
2023-01-25T05:07:56.279Z,97448.44
2023-01-25T05:08:58.227Z,97455.25
2023-01-25T05:10:02.798Z,97451.88
2023-01-25T05:11:05.020Z,97451.88
2023-01-25T05:12:13.646Z,97447.59
2023-01-25T05:13:15.572Z,97444.16
2023-01-25T05:14:20.127Z,97453.53
2023-01-25T05:15:22.127Z,97447.59
2023-01-25T05:16:29.296Z,97441.66
2023-01-25T05:17:31.324Z,97448.44
2023-01-25T05:18:47.421Z,97446.69
2023-01-25T05:19:49.735Z,97448.44
2023-01-25T05:20:57.829Z,97443.34
2023-01-25T05:22:00.170Z,97447.59
2023-01-25T05:23:04.806Z,97447.53
2023-01-25T05:24:07.476Z,97451.88
2023-01-25T05:25:32.648Z,97448.44
2023-01-25T05:26:49.747Z,97448.47
2023-01-25T05:27:51.726Z,97445.88
2023-01-25T05:28:53.773Z,97445.91
2023-01-25T05:30:00.015Z,97447.59
2023-01-25T05:31:04.825Z,97445.91
2023-01-25T05:32:14.600Z,97447.69
2023-01-25T05:33:16.633Z,97453.63
2023-01-25T05:34:21.335Z,97453.66
2023-01-25T05:35:26.135Z,97447.66
2023-01-25T05:36:28.105Z,97442.59
2023-01-25T05:37:32.823Z,97448.50
2023-01-25T05:38:34.915Z,97435.72
2023-01-25T05:39:39.733Z,97438.31
2023-01-25T05:40:42.090Z,97446.78
2023-01-25T05:41:46.801Z,97440.81
2023-01-25T05:42:53.950Z,97441.66
2023-01-25T05:43:58.587Z,97441.59
2023-01-25T05:45:00.604Z,97441.66
2023-01-25T05:46:06.010Z,97445.88
2023-01-25T05:47:16.420Z,97437.44
2023-01-25T05:48:18.448Z,97438.28
2023-01-25T05:49:23.638Z,97439.91
2023-01-25T05:50:26.573Z,97434.78
2023-01-25T05:51:31.212Z,97431.44
2023-01-25T05:52:33.289Z,97437.41
2023-01-25T05:53:37.919Z,97433.94
2023-01-25T05:54:40.212Z,97436.50
2023-01-25T05:55:44.824Z,97433.97
2023-01-25T05:56:50.085Z,97440.78
2023-01-25T05:57:58.030Z,97443.31
2023-01-25T05:59:01.708Z,97439.06
2023-01-25T06:00:07.991Z,97436.56
2023-01-25T06:01:10.233Z,97433.16
2023-01-25T06:02:17.659Z,97435.66
2023-01-25T06:03:19.862Z,97433.13
2023-01-25T06:04:24.687Z,97434.78
2023-01-25T06:05:26.765Z,97432.25
2023-01-25T06:06:31.708Z,97436.50
2023-01-25T06:07:36.367Z,97433.13
2023-01-25T06:08:41.436Z,97428.91
2023-01-25T06:09:43.539Z,97418.69
2023-01-25T06:10:48.147Z,97422.94
2023-01-25T06:11:50.310Z,97425.50
2023-01-25T06:13:00.762Z,97416.13
2023-01-25T06:14:02.759Z,97416.13
2023-01-25T06:15:08.757Z,97420.38
2023-01-25T06:16:11.258Z,97417.84
2023-01-25T06:17:18.779Z,97416.13
2023-01-25T06:18:21.544Z,97414.44
2023-01-25T06:19:26.124Z,97419.50
2023-01-25T06:20:28.295Z,97416.06
2023-01-25T06:21:33.056Z,97416.06
2023-01-25T06:22:35.144Z,97416.91
2023-01-25T06:23:39.956Z,97423.69
2023-01-25T06:24:42.024Z,97419.44
2023-01-25T06:25:46.661Z,97414.31
2023-01-25T06:26:48.681Z,97421.09
2023-01-25T06:27:53.322Z,97422.78
2023-01-25T06:28:55.478Z,97421.09
2023-01-25T06:30:00.752Z,97422.78
2023-01-25T06:31:07.788Z,97420.22
2023-01-25T06:32:12.633Z,97418.50
2023-01-25T06:33:17.578Z,97422.84
2023-01-25T06:34:22.837Z,97421.09
2023-01-25T06:35:25.087Z,97416.84
2023-01-25T06:36:29.967Z,97407.53
2023-01-25T06:37:31.993Z,97410.94
2023-01-25T06:38:37.005Z,97416.06
2023-01-25T06:39:38.974Z,97412.66
2023-01-25T06:40:43.650Z,97416.06
2023-01-25T06:41:48.362Z,97414.31
2023-01-25T06:42:50.486Z,97413.53
2023-01-25T06:43:55.988Z,97409.25
2023-01-25T06:44:57.953Z,97408.41
2023-01-25T06:46:03.497Z,97406.78
2023-01-25T06:47:05.679Z,97411.84
2023-01-25T06:48:12.756Z,97407.63
2023-01-25T06:49:20.568Z,97412.72
2023-01-25T06:50:22.655Z,97415.31
2023-01-25T06:51:27.365Z,97414.47
2023-01-25T06:52:30.929Z,97414.44
2023-01-25T06:53:38.466Z,97422.91
2023-01-25T06:54:43.230Z,97420.34
2023-01-25T06:55:45.169Z,97417.84
2023-01-25T06:56:49.749Z,97418.69
2023-01-25T06:57:51.862Z,97421.22
2023-01-25T06:58:56.499Z,97419.59
2023-01-25T06:59:58.485Z,97411.97
2023-01-25T07:01:04.649Z,97409.31
2023-01-25T07:02:06.822Z,97408.47
2023-01-25T07:03:11.783Z,97403.41
2023-01-25T07:04:16.399Z,97403.44
2023-01-25T07:05:21.357Z,97409.38
2023-01-25T07:06:27.507Z,97405.13
2023-01-25T07:07:29.725Z,97403.47
2023-01-25T07:08:35.453Z,97405.22
2023-01-25T07:09:40.347Z,97399.25
2023-01-25T07:10:42.330Z,97406.03
2023-01-25T07:11:47.520Z,97395.78
2023-01-25T07:12:49.476Z,97400.91
2023-01-25T07:13:54.164Z,97403.44
2023-01-25T07:14:56.503Z,97394.91
2023-01-25T07:16:02.937Z,97395.81
2023-01-25T07:17:07.971Z,97394.13
2023-01-25T07:18:16.267Z,97387.34
2023-01-25T07:19:21.609Z,97393.28
2023-01-25T07:20:26.460Z,97395.84
2023-01-25T07:21:31.081Z,97394.13
2023-01-25T07:22:37.752Z,97384.72
2023-01-25T07:23:40.497Z,97399.22
2023-01-25T07:24:50.007Z,97394.13
2023-01-25T07:25:52.003Z,97395.88
2023-01-25T07:26:56.760Z,97392.44
2023-01-25T07:27:58.848Z,97390.72
2023-01-25T07:29:03.536Z,97395.81
2023-01-25T07:30:09.620Z,97400.97
2023-01-25T07:31:12.021Z,97406.00
2023-01-25T07:32:17.033Z,97408.56
2023-01-25T07:33:19.011Z,97400.06
2023-01-25T07:34:23.717Z,97410.34
2023-01-25T07:35:28.231Z,97402.63
2023-01-25T07:36:33.178Z,97404.31
2023-01-25T07:37:35.297Z,97401.78
2023-01-25T07:38:40.057Z,97400.06
2023-01-25T07:39:48.602Z,97402.59
2023-01-25T07:40:52.268Z,97400.09
2023-01-25T07:41:56.749Z,97389.91
2023-01-25T07:42:58.907Z,97395.88
2023-01-25T07:44:03.482Z,97400.16
2023-01-25T07:45:06.588Z,97388.22
2023-01-25T07:46:14.064Z,97384.00
2023-01-25T07:47:16.358Z,97386.53
2023-01-25T07:48:22.522Z,97380.56
2023-01-25T07:49:27.058Z,97388.22
2023-01-25T07:50:31.580Z,97383.94
2023-01-25T07:51:36.130Z,97380.53
2023-01-25T07:52:38.162Z,97382.25
2023-01-25T07:53:43.436Z,97382.25
2023-01-25T07:54:50.003Z,97382.25
2023-01-25T07:55:52.006Z,97387.31
2023-01-25T07:56:57.904Z,97388.22
2023-01-25T07:58:00.673Z,97384.81
2023-01-25T07:59:08.325Z,97385.69
2023-01-25T08:00:13.160Z,97383.19
2023-01-25T08:01:19.829Z,97381.47
2023-01-25T08:02:24.742Z,97389.16
2023-01-25T08:03:26.774Z,97388.28
2023-01-25T08:04:31.385Z,97384.03
2023-01-25T08:05:35.873Z,97388.34
2023-01-25T08:06:41.654Z,97390.03
2023-01-25T08:07:46.176Z,97391.72
2023-01-25T08:08:52.300Z,97389.13
2023-01-25T08:09:56.822Z,97383.16
2023-01-25T08:10:58.769Z,97385.69
2023-01-25T08:12:03.524Z,97390.84
2023-01-25T08:13:06.919Z,97384.91
2023-01-25T08:14:11.585Z,97381.50
2023-01-25T08:15:16.367Z,97394.25
2023-01-25T08:16:20.253Z,97397.66
2023-01-25T08:17:24.907Z,97394.28
2023-01-25T08:18:29.410Z,97384.94
2023-01-25T08:19:33.892Z,97386.66
2023-01-25T08:20:38.408Z,97390.81
2023-01-25T08:21:42.958Z,97393.38
2023-01-25T08:22:47.569Z,97389.13
2023-01-25T08:23:52.139Z,97389.16
2023-01-25T08:24:57.254Z,97389.16
2023-01-25T08:26:02.340Z,97384.88
2023-01-25T08:27:06.970Z,97389.16
2023-01-25T08:28:08.895Z,97391.72
2023-01-25T08:29:14.150Z,97391.78
2023-01-25T08:30:19.593Z,97380.72
2023-01-25T08:31:23.052Z,97387.53
2023-01-25T08:32:27.887Z,97385.84
2023-01-25T08:33:29.857Z,97384.09
2023-01-25T08:34:34.599Z,97389.28
2023-01-25T08:35:39.221Z,97379.94
2023-01-25T08:36:43.753Z,97379.91
2023-01-25T08:37:48.248Z,97377.34
2023-01-25T08:38:57.540Z,97374.81
2023-01-25T08:40:02.081Z,97385.09
2023-01-25T08:41:07.318Z,97380.00
2023-01-25T08:42:11.855Z,97376.56
2023-01-25T08:43:14.305Z,97380.03
2023-01-25T08:44:22.429Z,97372.38
2023-01-25T08:45:26.928Z,97374.91
2023-01-25T08:46:33.576Z,97371.53
2023-01-25T08:47:35.734Z,97374.06
2023-01-25T08:48:40.593Z,97370.59
2023-01-25T08:49:45.187Z,97371.50
2023-01-25T08:50:49.756Z,97368.09
2023-01-25T08:51:54.419Z,97369.84
2023-01-25T08:52:56.505Z,97370.69
2023-01-25T08:54:05.002Z,97368.97
2023-01-25T08:55:10.206Z,97368.97
2023-01-25T08:56:17.040Z,97370.72
2023-01-25T08:57:21.584Z,97367.31
2023-01-25T08:58:23.549Z,97379.28
2023-01-25T08:59:28.074Z,97369.91
2023-01-25T09:00:30.152Z,97372.44
2023-01-25T09:01:34.852Z,97370.72
2023-01-25T09:02:38.110Z,97373.25
2023-01-25T09:03:44.494Z,97369.84
2023-01-25T09:04:50.007Z,97368.06
2023-01-25T09:05:54.962Z,97365.59
2023-01-25T09:06:59.702Z,97359.59
2023-01-25T09:08:05.871Z,97367.28
2023-01-25T09:09:11.467Z,97363.84
2023-01-25T09:10:16.322Z,97363.84
2023-01-25T09:11:23.644Z,97357.03
2023-01-25T09:12:28.344Z,97363.81
2023-01-25T09:13:30.485Z,97357.03
2023-01-25T09:14:35.203Z,97361.31
2023-01-25T09:15:37.203Z,97362.16
2023-01-25T09:16:42.184Z,97357.03
2023-01-25T09:17:47.020Z,97363.84
2023-01-25T09:18:50.731Z,97360.41
2023-01-25T09:19:55.752Z,97366.38
2023-01-25T09:21:03.501Z,97353.66
2023-01-25T09:22:08.464Z,97350.25
2023-01-25T09:23:13.270Z,97349.34
2023-01-25T09:24:18.128Z,97345.16
2023-01-25T09:25:20.191Z,97351.16
2023-01-25T09:26:24.917Z,97352.84
2023-01-25T09:27:29.677Z,97336.69
2023-01-25T09:28:33.401Z,97348.66
2023-01-25T09:29:39.574Z,97343.53
2023-01-25T09:30:53.592Z,97340.13
2023-01-25T09:32:04.453Z,97345.22
2023-01-25T09:33:06.783Z,97348.56
2023-01-25T09:34:12.369Z,97344.31
2023-01-25T09:35:17.735Z,97349.50
2023-01-25T09:36:22.476Z,97341.81
2023-01-25T09:37:27.222Z,97343.53
2023-01-25T09:38:29.445Z,97340.97
2023-01-25T09:39:34.038Z,97342.69
2023-01-25T09:40:44.414Z,97345.22
2023-01-25T09:42:23.572Z,97340.13
2023-01-25T09:43:41.188Z,97343.53
2023-01-25T09:45:12.404Z,97341.81
2023-01-25T09:46:29.096Z,97346.97
2023-01-25T09:47:42.808Z,97342.72
2023-01-25T09:49:07.393Z,97338.44
2023-01-25T09:50:35.470Z,97339.31
2023-01-25T09:51:59.879Z,97338.44
2023-01-25T09:53:24.401Z,97335.06
2023-01-25T09:54:33.756Z,97329.91
2023-01-25T09:55:41.403Z,97332.53
2023-01-25T09:56:46.673Z,97339.31
2023-01-25T09:57:51.107Z,97335.06
2023-01-25T09:59:00.405Z,97335.91
2023-01-25T10:00:12.266Z,97332.50
2023-01-25T10:01:38.050Z,97336.72
2023-01-25T10:02:52.058Z,97343.56
2023-01-25T10:04:00.858Z,97340.97
2023-01-25T10:05:11.200Z,97341.88
2023-01-25T10:06:16.903Z,97339.34
2023-01-25T10:07:31.019Z,97332.53
2023-01-25T10:08:42.243Z,97330.84
2023-01-25T10:09:54.667Z,97328.19
2023-01-25T10:11:02.450Z,97330.75
2023-01-25T10:12:15.627Z,97327.38
2023-01-25T10:13:21.941Z,97331.66
2023-01-25T10:14:28.081Z,97323.94
2023-01-25T10:15:38.299Z,97328.22
2023-01-25T10:16:53.366Z,97319.75
2023-01-25T10:18:06.881Z,97321.34
2023-01-25T10:19:22.748Z,97332.47
2023-01-25T10:20:35.027Z,97329.94
2023-01-25T10:21:43.977Z,97326.53
2023-01-25T10:22:56.010Z,97329.94
2023-01-25T10:24:13.380Z,97321.44
2023-01-25T10:25:39.251Z,97323.97
2023-01-25T10:26:45.369Z,97318.00
2023-01-25T10:28:04.472Z,97317.13
2023-01-25T10:29:15.735Z,97316.31
2023-01-25T10:30:30.339Z,97314.53
2023-01-25T10:31:43.024Z,97312.88
2023-01-25T10:32:55.291Z,97307.78
2023-01-25T10:34:01.889Z,97305.22
2023-01-25T10:35:33.432Z,97308.66
2023-01-25T10:36:39.335Z,97309.41
2023-01-25T10:37:44.576Z,97310.28
2023-01-25T10:38:49.930Z,97315.44
2023-01-25T10:40:01.232Z,97314.63
2023-01-25T10:41:10.040Z,97306.13
2023-01-25T10:42:18.234Z,97314.66
2023-01-25T10:43:25.341Z,97310.38
2023-01-25T10:44:30.406Z,97304.44
2023-01-25T10:45:32.586Z,97308.69
2023-01-25T10:46:38.056Z,97305.28
2023-01-25T10:47:45.633Z,97302.72
2023-01-25T10:48:50.549Z,97306.13
2023-01-25T10:49:57.662Z,97301.88
2023-01-25T10:51:03.169Z,97299.25
2023-01-25T10:52:14.715Z,97294.19
2023-01-25T10:53:31.480Z,97306.97
2023-01-25T10:54:38.994Z,97296.75
2023-01-25T10:56:01.357Z,97303.56
2023-01-25T10:57:09.431Z,97290.75
2023-01-25T10:58:33.430Z,97305.22
2023-01-25T10:59:39.421Z,97288.22
2023-01-25T11:00:41.985Z,97289.09
2023-01-25T11:01:47.387Z,97292.50
2023-01-25T11:02:54.002Z,97289.97
2023-01-25T11:03:59.537Z,97278.91
2023-01-25T11:05:27.169Z,97284.03
2023-01-25T11:06:34.907Z,97283.16
2023-01-25T11:07:39.699Z,97277.22
2023-01-25T11:08:46.104Z,97266.97
2023-01-25T11:09:53.374Z,97277.19
2023-01-25T11:10:55.513Z,97278.91
2023-01-25T11:12:02.345Z,97273.81
2023-01-25T11:13:23.014Z,97267.00
2023-01-25T11:14:29.639Z,97269.56
2023-01-25T11:15:34.643Z,97267.00
2023-01-25T11:16:43.855Z,97272.13
2023-01-25T11:17:45.850Z,97267.88
2023-01-25T11:18:55.898Z,97265.31
2023-01-25T11:20:19.338Z,97261.00
2023-01-25T11:21:25.826Z,97267.81
2023-01-25T11:22:30.569Z,97262.72
2023-01-25T11:23:33.944Z,97266.13
2023-01-25T11:24:39.447Z,97264.44
2023-01-25T11:25:44.126Z,97262.75
2023-01-25T11:26:49.290Z,97260.16
2023-01-25T11:27:51.289Z,97260.13
2023-01-25T11:29:10.434Z,97255.88
2023-01-25T11:30:21.623Z,97265.28
2023-01-25T11:31:27.460Z,97262.69
2023-01-25T11:32:29.594Z,97261.03
2023-01-25T11:33:34.481Z,97259.31
2023-01-25T11:34:39.440Z,97255.03
2023-01-25T11:36:04.895Z,97251.66
2023-01-25T11:37:23.081Z,97243.97
2023-01-25T11:38:28.475Z,97243.13
2023-01-25T11:39:45.589Z,97249.97
2023-01-25T11:41:00.418Z,97245.69
2023-01-25T11:42:15.433Z,97236.28
2023-01-25T11:43:32.540Z,97240.53
2023-01-25T11:45:10.371Z,97232.88
2023-01-25T11:46:41.178Z,97238.81
2023-01-25T11:47:57.807Z,97227.75
2023-01-25T11:49:14.737Z,97225.19
2023-01-25T11:50:27.035Z,97229.44
2023-01-25T11:51:37.186Z,97222.63
2023-01-25T11:53:03.139Z,97220.06
2023-01-25T11:54:48.909Z,97220.09
2023-01-25T11:56:02.803Z,97217.53
2023-01-25T11:57:21.684Z,97211.56
2023-01-25T11:58:45.789Z,97206.41
2023-01-25T12:00:12.721Z,97202.19
2023-01-25T12:01:26.494Z,97205.63
2023-01-25T12:02:52.797Z,97201.34
2023-01-25T12:04:28.253Z,97197.97
2023-01-25T12:05:46.485Z,97181.75
2023-01-25T12:07:02.879Z,97185.19
2023-01-25T12:08:22.908Z,97183.47
2023-01-25T12:09:43.529Z,97180.91
2023-01-25T12:11:00.004Z,97175.78
2023-01-25T12:12:14.201Z,97172.38
2023-01-25T12:13:28.572Z,97169.84
2023-01-25T12:14:45.954Z,97170.69
2023-01-25T12:16:12.043Z,97163.03
2023-01-25T12:17:34.672Z,97166.44
2023-01-25T12:19:07.127Z,97160.47
2023-01-25T12:20:31.608Z,97158.75
2023-01-25T12:21:50.453Z,97160.47
2023-01-25T12:23:18.107Z,97163.00
2023-01-25T12:24:37.639Z,97157.06
2023-01-25T12:25:48.400Z,97152.78
2023-01-25T12:27:03.860Z,97147.66
2023-01-25T12:28:16.823Z,97145.13
2023-01-25T12:29:28.175Z,97145.97
2023-01-25T12:30:44.987Z,97143.41
2023-01-25T12:31:55.012Z,97140.00
2023-01-25T12:33:14.348Z,97134.03
2023-01-25T12:34:24.533Z,97131.47
2023-01-25T12:35:36.099Z,97126.34
2023-01-25T12:36:45.970Z,97120.38
2023-01-25T12:37:49.778Z,97119.53
2023-01-25T12:39:00.622Z,97121.25
2023-01-25T12:40:12.400Z,97120.38
2023-01-25T12:41:29.209Z,97120.41
2023-01-25T12:42:42.656Z,97113.59
2023-01-25T12:43:53.296Z,97117.84
2023-01-25T12:45:03.785Z,97118.69
2023-01-25T12:46:17.775Z,97110.19
2023-01-25T12:47:28.073Z,97110.16
2023-01-25T12:48:36.720Z,97105.91
2023-01-25T12:49:45.623Z,97105.06
2023-01-25T12:50:55.230Z,97106.75
2023-01-25T12:52:04.318Z,97099.09
2023-01-25T12:53:13.864Z,97103.34
2023-01-25T12:54:26.249Z,97100.81
2023-01-25T12:55:31.931Z,97100.81
2023-01-25T12:56:45.489Z,97093.13
2023-01-25T12:58:01.067Z,97098.25
2023-01-25T12:59:17.802Z,97093.97
2023-01-25T13:00:30.368Z,97093.13
2023-01-25T13:01:43.191Z,97088.88
2023-01-25T13:03:03.223Z,97087.16
2023-01-25T13:04:23.580Z,97083.75
2023-01-25T13:05:37.787Z,97088.00
2023-01-25T13:06:50.560Z,97082.91